sensor_id;sensor_type;location;lat;lon;timestamp;temperature;humidity
10249;DHT22;5169;50.560;9.714;2023-05-10T00:00:18;15.20;99.90
10249;DHT22;5169;50.560;9.714;2023-05-10T00:02:52;15.10;99.90
10249;DHT22;5169;50.560;9.714;2023-05-10T00:05:18;15.10;99.90
10249;DHT22;5169;50.560;9.714;2023-05-10T00:07:44;15.10;99.90
10249;DHT22;5169;50.560;9.714;2023-05-10T00:10:16;15.00;99.90
10249;DHT22;5169;50.560;9.714;2023-05-10T00:12:42;15.00;99.90
10249;DHT22;5169;50.560;9.714;2023-05-10T00:15:08;15.00;99.90
10249;DHT22;5169;50.560;9.714;2023-05-10T00:17:34;14.90;99.90
10249;DHT22;5169;50.560;9.714;2023-05-10T00:20:00;14.80;99.90
10249;DHT22;5169;50.560;9.714;2023-05-10T00:22:25;14.90;99.90
10249;DHT22;5169;50.560;9.714;2023-05-10T00:24:53;14.90;99.90
10249;DHT22;5169;50.560;9.714;2023-05-10T00:27:19;14.90;99.90
10249;DHT22;5169;50.560;9.714;2023-05-10T00:29:46;15.00;99.90
10249;DHT22;5169;50.560;9.714;2023-05-10T00:32:13;15.00;99.90
10249;DHT22;5169;50.560;9.714;2023-05-10T00:34:41;15.00;99.90
10249;DHT22;5169;50.560;9.714;2023-05-10T00:37:07;14.80;99.90
10249;DHT22;5169;50.560;9.714;2023-05-10T00:39:33;14.80;99.90
10249;DHT22;5169;50.560;9.714;2023-05-10T00:42:02;14.80;99.90
10249;DHT22;5169;50.560;9.714;2023-05-10T00:44:27;14.90;99.90
10249;DHT22;5169;50.560;9.714;2023-05-10T00:46:53;15.00;99.90
10249;DHT22;5169;50.560;9.714;2023-05-10T00:49:22;15.10;99.90
10249;DHT22;5169;50.560;9.714;2023-05-10T00:51:48;15.10;99.90
10249;DHT22;5169;50.560;9.714;2023-05-10T00:54:14;15.20;99.90
10249;DHT22;5169;50.560;9.714;2023-05-10T00:56:43;15.10;99.90
10249;DHT22;5169;50.560;9.714;2023-05-10T00:59:15;15.10;99.90
10249;DHT22;5169;50.560;9.714;2023-05-10T01:01:49;15.20;99.90
10249;DHT22;5169;50.560;9.714;2023-05-10T01:04:15;15.10;99.90
10249;DHT22;5169;50.560;9.714;2023-05-10T01:06:43;15.10;99.90
10249;DHT22;5169;50.560;9.714;2023-05-10T01:12:49;15.10;99.90
10249;DHT22;5169;50.560;9.714;2023-05-10T01:15:21;15.10;99.90
10249;DHT22;5169;50.560;9.714;2023-05-10T01:17:49;15.00;99.90
10249;DHT22;5169;50.560;9.714;2023-05-10T01:20:15;15.10;99.90
10249;DHT22;5169;50.560;9.714;2023-05-10T01:23:04;14.90;99.90
10249;DHT22;5169;50.560;9.714;2023-05-10T01:28:58;14.90;99.90
10249;DHT22;5169;50.560;9.714;2023-05-10T01:34:34;14.80;99.90
10249;DHT22;5169;50.560;9.714;2023-05-10T01:37:08;14.80;99.90
10249;DHT22;5169;50.560;9.714;2023-05-10T01:39:53;14.70;99.90
10249;DHT22;5169;50.560;9.714;2023-05-10T01:42:26;14.80;99.90
10249;DHT22;5169;50.560;9.714;2023-05-10T01:47:48;14.80;99.90
10249;DHT22;5169;50.560;9.714;2023-05-10T01:50:18;14.80;99.90
10249;DHT22;5169;50.560;9.714;2023-05-10T01:52:55;14.70;99.90
10249;DHT22;5169;50.560;9.714;2023-05-10T01:55:28;14.70;99.90
10249;DHT22;5169;50.560;9.714;2023-05-10T01:58:06;14.70;99.90
10249;DHT22;5169;50.560;9.714;2023-05-10T02:00:35;14.60;99.90
10249;DHT22;5169;50.560;9.714;2023-05-10T02:03:10;14.70;99.90
10249;DHT22;5169;50.560;9.714;2023-05-10T02:05:37;14.60;99.90
10249;DHT22;5169;50.560;9.714;2023-05-10T02:08:11;14.50;99.90
10249;DHT22;5169;50.560;9.714;2023-05-10T02:10:41;14.50;99.90
10249;DHT22;5169;50.560;9.714;2023-05-10T02:13:16;14.30;99.90
10249;DHT22;5169;50.560;9.714;2023-05-10T02:15:42;14.20;99.90
10249;DHT22;5169;50.560;9.714;2023-05-10T02:18:10;14.00;99.90
10249;DHT22;5169;50.560;9.714;2023-05-10T02:20:45;13.90;99.90
10249;DHT22;5169;50.560;9.714;2023-05-10T02:23:11;13.80;99.90
10249;DHT22;5169;50.560;9.714;2023-05-10T02:25:44;13.90;99.90
10249;DHT22;5169;50.560;9.714;2023-05-10T02:28:13;13.90;99.90
10249;DHT22;5169;50.560;9.714;2023-05-10T02:30:45;13.80;99.90
10249;DHT22;5169;50.560;9.714;2023-05-10T02:33:13;13.80;99.90
10249;DHT22;5169;50.560;9.714;2023-05-10T02:35:39;13.70;99.90
10249;DHT22;5169;50.560;9.714;2023-05-10T02:38:06;13.70;99.90
10249;DHT22;5169;50.560;9.714;2023-05-10T02:40:36;13.70;99.90
10249;DHT22;5169;50.560;9.714;2023-05-10T02:43:12;13.80;99.90
10249;DHT22;5169;50.560;9.714;2023-05-10T02:45:39;13.70;99.90
10249;DHT22;5169;50.560;9.714;2023-05-10T02:48:06;13.60;99.90
10249;DHT22;5169;50.560;9.714;2023-05-10T02:50:43;13.50;99.90
10249;DHT22;5169;50.560;9.714;2023-05-10T02:53:31;13.30;99.90
10249;DHT22;5169;50.560;9.714;2023-05-10T02:56:00;13.30;99.90
10249;DHT22;5169;50.560;9.714;2023-05-10T02:58:34;13.20;99.90
10249;DHT22;5169;50.560;9.714;2023-05-10T03:01:10;13.20;99.90
10249;DHT22;5169;50.560;9.714;2023-05-10T03:03:37;13.10;99.90
10249;DHT22;5169;50.560;9.714;2023-05-10T03:06:03;13.00;99.90
10249;DHT22;5169;50.560;9.714;2023-05-10T03:08:32;13.00;99.90
10249;DHT22;5169;50.560;9.714;2023-05-10T03:13:56;13.10;99.90
10249;DHT22;5169;50.560;9.714;2023-05-10T03:16:28;13.20;99.90
10249;DHT22;5169;50.560;9.714;2023-05-10T03:19:01;13.20;99.90
10249;DHT22;5169;50.560;9.714;2023-05-10T03:21:29;13.20;99.90
10249;DHT22;5169;50.560;9.714;2023-05-10T03:24:07;13.20;99.90
10249;DHT22;5169;50.560;9.714;2023-05-10T03:26:43;13.30;99.90
10249;DHT22;5169;50.560;9.714;2023-05-10T03:29:15;13.30;99.90
10249;DHT22;5169;50.560;9.714;2023-05-10T03:31:41;13.20;99.90
10249;DHT22;5169;50.560;9.714;2023-05-10T03:34:14;13.20;99.90
10249;DHT22;5169;50.560;9.714;2023-05-10T03:36:39;13.20;99.90
10249;DHT22;5169;50.560;9.714;2023-05-10T03:39:05;13.30;99.90
10249;DHT22;5169;50.560;9.714;2023-05-10T03:41:31;13.20;99.90
10249;DHT22;5169;50.560;9.714;2023-05-10T03:44:01;13.30;99.90
10249;DHT22;5169;50.560;9.714;2023-05-10T03:46:26;13.20;99.90
10249;DHT22;5169;50.560;9.714;2023-05-10T03:48:52;13.30;99.90
10249;DHT22;5169;50.560;9.714;2023-05-10T03:51:18;13.30;99.90
10249;DHT22;5169;50.560;9.714;2023-05-10T03:53:43;13.30;99.90
10249;DHT22;5169;50.560;9.714;2023-05-10T03:56:15;13.30;99.90
10249;DHT22;5169;50.560;9.714;2023-05-10T03:58:40;13.30;99.90
10249;DHT22;5169;50.560;9.714;2023-05-10T04:01:06;13.50;99.90
10249;DHT22;5169;50.560;9.714;2023-05-10T04:03:31;13.50;99.90
10249;DHT22;5169;50.560;9.714;2023-05-10T04:06:01;13.50;99.90
10249;DHT22;5169;50.560;9.714;2023-05-10T04:08:27;13.60;99.90
10249;DHT22;5169;50.560;9.714;2023-05-10T04:10:53;13.50;99.90
10249;DHT22;5169;50.560;9.714;2023-05-10T04:13:18;13.20;99.90
10249;DHT22;5169;50.560;9.714;2023-05-10T04:15:44;13.30;99.90
10249;DHT22;5169;50.560;9.714;2023-05-10T04:18:10;13.40;99.90
10249;DHT22;5169;50.560;9.714;2023-05-10T04:20:38;13.40;99.90
10249;DHT22;5169;50.560;9.714;2023-05-10T04:23:03;13.40;99.90
10249;DHT22;5169;50.560;9.714;2023-05-10T04:25:36;13.40;99.90
10249;DHT22;5169;50.560;9.714;2023-05-10T04:28:02;13.40;99.90
10249;DHT22;5169;50.560;9.714;2023-05-10T04:30:27;13.50;99.90
10249;DHT22;5169;50.560;9.714;2023-05-10T04:32:54;13.60;99.90
10249;DHT22;5169;50.560;9.714;2023-05-10T04:35:20;13.60;99.90
10249;DHT22;5169;50.560;9.714;2023-05-10T04:37:51;13.40;99.90
10249;DHT22;5169;50.560;9.714;2023-05-10T04:40:17;13.50;99.90
10249;DHT22;5169;50.560;9.714;2023-05-10T04:42:43;13.50;99.90
10249;DHT22;5169;50.560;9.714;2023-05-10T04:45:15;13.40;99.90
10249;DHT22;5169;50.560;9.714;2023-05-10T04:47:41;13.30;99.90
10249;DHT22;5169;50.560;9.714;2023-05-10T04:50:07;13.30;99.90
10249;DHT22;5169;50.560;9.714;2023-05-10T04:52:40;13.40;99.90
10249;DHT22;5169;50.560;9.714;2023-05-10T04:55:06;13.40;99.90
10249;DHT22;5169;50.560;9.714;2023-05-10T04:57:40;13.50;99.90
10249;DHT22;5169;50.560;9.714;2023-05-10T05:00:08;13.40;99.90
10249;DHT22;5169;50.560;9.714;2023-05-10T05:02:48;13.50;99.90
10249;DHT22;5169;50.560;9.714;2023-05-10T05:05:14;13.40;99.90
10249;DHT22;5169;50.560;9.714;2023-05-10T05:07:40;13.50;99.90
10249;DHT22;5169;50.560;9.714;2023-05-10T05:10:08;13.50;99.90
10249;DHT22;5169;50.560;9.714;2023-05-10T05:12:37;13.50;99.90
10249;DHT22;5169;50.560;9.714;2023-05-10T05:15:02;13.50;99.90
10249;DHT22;5169;50.560;9.714;2023-05-10T05:17:30;13.40;99.90
10249;DHT22;5169;50.560;9.714;2023-05-10T05:19:55;13.50;99.90
10249;DHT22;5169;50.560;9.714;2023-05-10T05:22:21;13.60;99.90
10249;DHT22;5169;50.560;9.714;2023-05-10T05:24:56;13.60;99.90
10249;DHT22;5169;50.560;9.714;2023-05-10T05:27:25;13.60;99.90
10249;DHT22;5169;50.560;9.714;2023-05-10T05:29:53;13.60;99.90
10249;DHT22;5169;50.560;9.714;2023-05-10T05:32:22;13.60;99.90
10249;DHT22;5169;50.560;9.714;2023-05-10T05:34:48;13.60;99.90
10249;DHT22;5169;50.560;9.714;2023-05-10T05:37:20;13.70;99.90
10249;DHT22;5169;50.560;9.714;2023-05-10T05:39:50;13.80;99.90
10249;DHT22;5169;50.560;9.714;2023-05-10T05:42:18;13.80;99.90
10249;DHT22;5169;50.560;9.714;2023-05-10T05:44:44;13.80;99.90
10249;DHT22;5169;50.560;9.714;2023-05-10T05:47:12;13.80;99.90
10249;DHT22;5169;50.560;9.714;2023-05-10T05:49:37;13.80;99.90
10249;DHT22;5169;50.560;9.714;2023-05-10T05:52:04;13.90;99.90
10249;DHT22;5169;50.560;9.714;2023-05-10T05:54:30;14.00;99.90
10249;DHT22;5169;50.560;9.714;2023-05-10T05:56:59;14.00;99.90
10249;DHT22;5169;50.560;9.714;2023-05-10T05:59:25;14.10;99.90
10249;DHT22;5169;50.560;9.714;2023-05-10T06:01:50;14.20;99.90
10249;DHT22;5169;50.560;9.714;2023-05-10T06:04:18;14.40;99.90
10249;DHT22;5169;50.560;9.714;2023-05-10T06:06:46;14.40;99.90
10249;DHT22;5169;50.560;9.714;2023-05-10T06:09:12;14.50;99.90
10249;DHT22;5169;50.560;9.714;2023-05-10T06:11:40;14.60;99.90
10249;DHT22;5169;50.560;9.714;2023-05-10T06:14:10;14.50;99.90
10249;DHT22;5169;50.560;9.714;2023-05-10T06:16:36;14.50;99.90
10249;DHT22;5169;50.560;9.714;2023-05-10T06:19:02;14.40;99.90
10249;DHT22;5169;50.560;9.714;2023-05-10T06:21:32;14.40;99.90
10249;DHT22;5169;50.560;9.714;2023-05-10T06:24:00;14.30;99.90
10249;DHT22;5169;50.560;9.714;2023-05-10T06:26:26;14.30;99.90
10249;DHT22;5169;50.560;9.714;2023-05-10T06:28:51;14.40;99.90
10249;DHT22;5169;50.560;9.714;2023-05-10T06:31:19;14.50;99.90
10249;DHT22;5169;50.560;9.714;2023-05-10T06:33:45;14.60;99.90
10249;DHT22;5169;50.560;9.714;2023-05-10T06:36:11;14.60;99.90
10249;DHT22;5169;50.560;9.714;2023-05-10T06:38:39;14.70;99.90
10249;DHT22;5169;50.560;9.714;2023-05-10T06:41:11;14.60;99.90
10249;DHT22;5169;50.560;9.714;2023-05-10T06:43:36;14.70;99.90
10249;DHT22;5169;50.560;9.714;2023-05-10T06:46:05;14.80;99.90
10249;DHT22;5169;50.560;9.714;2023-05-10T06:48:33;14.60;99.90
10249;DHT22;5169;50.560;9.714;2023-05-10T06:50:59;14.60;99.90
10249;DHT22;5169;50.560;9.714;2023-05-10T06:53:24;14.50;99.90
10249;DHT22;5169;50.560;9.714;2023-05-10T06:55:50;14.50;99.90
10249;DHT22;5169;50.560;9.714;2023-05-10T06:58:16;14.50;99.90
10249;DHT22;5169;50.560;9.714;2023-05-10T07:00:41;14.50;99.90
10249;DHT22;5169;50.560;9.714;2023-05-10T07:03:09;14.40;99.90
10249;DHT22;5169;50.560;9.714;2023-05-10T07:05:37;14.50;99.90
10249;DHT22;5169;50.560;9.714;2023-05-10T07:08:05;14.60;99.90
10249;DHT22;5169;50.560;9.714;2023-05-10T07:10:31;14.60;99.90
10249;DHT22;5169;50.560;9.714;2023-05-10T07:12:56;14.40;99.90
10249;DHT22;5169;50.560;9.714;2023-05-10T07:15:22;14.40;99.90
10249;DHT22;5169;50.560;9.714;2023-05-10T07:17:48;14.40;99.90
10249;DHT22;5169;50.560;9.714;2023-05-10T07:20:13;14.50;99.90
10249;DHT22;5169;50.560;9.714;2023-05-10T07:22:39;14.50;99.90
10249;DHT22;5169;50.560;9.714;2023-05-10T07:25:05;14.50;99.90
10249;DHT22;5169;50.560;9.714;2023-05-10T07:27:31;14.50;99.90
10249;DHT22;5169;50.560;9.714;2023-05-10T07:29:59;14.60;99.90
10249;DHT22;5169;50.560;9.714;2023-05-10T07:32:27;14.60;99.90
10249;DHT22;5169;50.560;9.714;2023-05-10T07:34:53;14.50;99.90
10249;DHT22;5169;50.560;9.714;2023-05-10T07:37:21;14.50;99.90
10249;DHT22;5169;50.560;9.714;2023-05-10T07:39:47;14.70;99.90
10249;DHT22;5169;50.560;9.714;2023-05-10T07:42:12;14.80;99.90
10249;DHT22;5169;50.560;9.714;2023-05-10T07:44:38;14.90;99.90
10249;DHT22;5169;50.560;9.714;2023-05-10T07:47:03;14.90;99.90
10249;DHT22;5169;50.560;9.714;2023-05-10T07:49:29;14.90;99.90
10249;DHT22;5169;50.560;9.714;2023-05-10T07:51:54;14.90;99.90
10249;DHT22;5169;50.560;9.714;2023-05-10T07:54:20;14.90;99.90
10249;DHT22;5169;50.560;9.714;2023-05-10T07:56:46;15.00;99.90
10249;DHT22;5169;50.560;9.714;2023-05-10T07:59:16;15.10;99.90
10249;DHT22;5169;50.560;9.714;2023-05-10T08:01:45;15.20;99.90
10249;DHT22;5169;50.560;9.714;2023-05-10T08:04:13;15.20;99.90
10249;DHT22;5169;50.560;9.714;2023-05-10T08:06:39;15.10;99.90
10249;DHT22;5169;50.560;9.714;2023-05-10T08:09:08;15.20;99.90
10249;DHT22;5169;50.560;9.714;2023-05-10T08:11:33;15.30;99.90
10249;DHT22;5169;50.560;9.714;2023-05-10T08:13:59;15.40;99.90
10249;DHT22;5169;50.560;9.714;2023-05-10T08:16:25;15.40;99.90
10249;DHT22;5169;50.560;9.714;2023-05-10T08:18:52;15.40;99.90
10249;DHT22;5169;50.560;9.714;2023-05-10T08:21:20;15.40;99.90
10249;DHT22;5169;50.560;9.714;2023-05-10T08:23:45;15.40;99.90
10249;DHT22;5169;50.560;9.714;2023-05-10T08:26:11;15.50;99.90
10249;DHT22;5169;50.560;9.714;2023-05-10T08:28:37;15.50;99.90
10249;DHT22;5169;50.560;9.714;2023-05-10T08:31:07;15.50;99.90
10249;DHT22;5169;50.560;9.714;2023-05-10T08:33:35;15.60;99.90
10249;DHT22;5169;50.560;9.714;2023-05-10T08:36:00;15.50;99.90
10249;DHT22;5169;50.560;9.714;2023-05-10T08:38:26;15.40;99.90
10249;DHT22;5169;50.560;9.714;2023-05-10T08:40:55;15.40;99.90
10249;DHT22;5169;50.560;9.714;2023-05-10T08:43:26;15.50;99.90
10249;DHT22;5169;50.560;9.714;2023-05-10T08:45:54;15.60;99.90
10249;DHT22;5169;50.560;9.714;2023-05-10T08:48:23;15.70;99.90
10249;DHT22;5169;50.560;9.714;2023-05-10T08:50:53;15.70;99.90
10249;DHT22;5169;50.560;9.714;2023-05-10T08:53:24;15.70;99.90
10249;DHT22;5169;50.560;9.714;2023-05-10T08:55:52;15.90;99.90
10249;DHT22;5169;50.560;9.714;2023-05-10T08:58:19;16.20;99.90
10249;DHT22;5169;50.560;9.714;2023-05-10T09:00:45;16.30;99.90
10249;DHT22;5169;50.560;9.714;2023-05-10T09:03:13;16.30;99.90
10249;DHT22;5169;50.560;9.714;2023-05-10T09:05:39;16.40;99.90
10249;DHT22;5169;50.560;9.714;2023-05-10T09:08:06;16.40;99.90
10249;DHT22;5169;50.560;9.714;2023-05-10T09:10:33;16.40;99.90
10249;DHT22;5169;50.560;9.714;2023-05-10T09:12:59;16.30;99.90
10249;DHT22;5169;50.560;9.714;2023-05-10T09:15:24;16.20;99.90
10249;DHT22;5169;50.560;9.714;2023-05-10T09:17:50;16.20;99.90
10249;DHT22;5169;50.560;9.714;2023-05-10T09:20:16;16.10;99.90
10249;DHT22;5169;50.560;9.714;2023-05-10T09:22:46;16.10;99.90
10249;DHT22;5169;50.560;9.714;2023-05-10T09:25:14;16.00;99.90
10249;DHT22;5169;50.560;9.714;2023-05-10T09:27:47;15.90;99.90
10249;DHT22;5169;50.560;9.714;2023-05-10T09:30:25;15.90;99.90
10249;DHT22;5169;50.560;9.714;2023-05-10T09:32:52;16.00;99.90
10249;DHT22;5169;50.560;9.714;2023-05-10T09:35:23;16.10;99.90
10249;DHT22;5169;50.560;9.714;2023-05-10T09:37:51;16.20;99.90
10249;DHT22;5169;50.560;9.714;2023-05-10T09:40:26;16.30;99.90
10249;DHT22;5169;50.560;9.714;2023-05-10T09:43:00;16.20;99.90
10249;DHT22;5169;50.560;9.714;2023-05-10T09:45:31;16.10;99.90
10249;DHT22;5169;50.560;9.714;2023-05-10T09:48:01;16.20;99.90
10249;DHT22;5169;50.560;9.714;2023-05-10T09:50:28;16.50;99.90
10249;DHT22;5169;50.560;9.714;2023-05-10T09:52:59;16.70;99.90
10249;DHT22;5169;50.560;9.714;2023-05-10T09:55:42;16.80;99.90
10249;DHT22;5169;50.560;9.714;2023-05-10T09:58:10;16.70;99.90
10249;DHT22;5169;50.560;9.714;2023-05-10T10:00:45;16.50;99.90
10249;DHT22;5169;50.560;9.714;2023-05-10T10:03:18;16.40;99.90
10249;DHT22;5169;50.560;9.714;2023-05-10T10:05:44;16.30;99.90
10249;DHT22;5169;50.560;9.714;2023-05-10T10:08:15;16.60;99.90
10249;DHT22;5169;50.560;9.714;2023-05-10T10:10:41;16.80;99.90
10249;DHT22;5169;50.560;9.714;2023-05-10T10:13:09;17.00;99.90
10249;DHT22;5169;50.560;9.714;2023-05-10T10:15:41;17.50;99.90
10249;DHT22;5169;50.560;9.714;2023-05-10T10:18:07;17.90;99.90
10249;DHT22;5169;50.560;9.714;2023-05-10T10:20:37;18.10;99.90
10249;DHT22;5169;50.560;9.714;2023-05-10T10:23:03;18.50;99.90
10249;DHT22;5169;50.560;9.714;2023-05-10T10:25:29;18.70;99.90
10249;DHT22;5169;50.560;9.714;2023-05-10T10:36:03;19.40;99.90
10249;DHT22;5169;50.560;9.714;2023-05-10T10:41:32;19.50;99.90
10249;DHT22;5169;50.560;9.714;2023-05-10T10:49:49;19.30;99.90
10249;DHT22;5169;50.560;9.714;2023-05-10T10:54:53;19.50;99.90
10249;DHT22;5169;50.560;9.714;2023-05-10T10:57:19;19.80;99.90
10249;DHT22;5169;50.560;9.714;2023-05-10T10:59:47;20.50;99.90
10249;DHT22;5169;50.560;9.714;2023-05-10T11:10:39;21.00;99.90
10249;DHT22;5169;50.560;9.714;2023-05-10T11:13:07;20.70;99.90
10249;DHT22;5169;50.560;9.714;2023-05-10T11:15:38;20.10;99.90
10249;DHT22;5169;50.560;9.714;2023-05-10T11:18:18;19.40;99.90
10249;DHT22;5169;50.560;9.714;2023-05-10T11:21:02;19.10;99.90
10249;DHT22;5169;50.560;9.714;2023-05-10T11:23:55;18.80;99.90
10249;DHT22;5169;50.560;9.714;2023-05-10T11:26:34;18.30;99.90
10249;DHT22;5169;50.560;9.714;2023-05-10T11:29:03;18.20;99.90
10249;DHT22;5169;50.560;9.714;2023-05-10T11:31:31;18.00;99.90
10249;DHT22;5169;50.560;9.714;2023-05-10T11:33:57;18.00;99.90
10249;DHT22;5169;50.560;9.714;2023-05-10T11:36:28;17.80;99.90
10249;DHT22;5169;50.560;9.714;2023-05-10T11:38:55;17.60;99.90
10249;DHT22;5169;50.560;9.714;2023-05-10T11:41:25;17.80;99.90
10249;DHT22;5169;50.560;9.714;2023-05-10T11:43:55;18.00;99.90
10249;DHT22;5169;50.560;9.714;2023-05-10T11:46:25;17.90;99.90
10249;DHT22;5169;50.560;9.714;2023-05-10T11:49:01;17.80;99.90
10249;DHT22;5169;50.560;9.714;2023-05-10T11:51:29;17.50;99.90
10249;DHT22;5169;50.560;9.714;2023-05-10T11:54:01;17.10;99.90
10249;DHT22;5169;50.560;9.714;2023-05-10T11:56:32;16.90;99.90
10249;DHT22;5169;50.560;9.714;2023-05-10T11:58:59;16.70;99.90
10249;DHT22;5169;50.560;9.714;2023-05-10T12:01:30;16.30;99.90
10249;DHT22;5169;50.560;9.714;2023-05-10T12:03:57;16.00;99.90
10249;DHT22;5169;50.560;9.714;2023-05-10T12:06:27;15.70;99.90
10249;DHT22;5169;50.560;9.714;2023-05-10T12:08:53;15.40;99.90
10249;DHT22;5169;50.560;9.714;2023-05-10T12:11:23;15.20;99.90
10249;DHT22;5169;50.560;9.714;2023-05-10T12:13:50;15.10;99.90
10249;DHT22;5169;50.560;9.714;2023-05-10T12:16:26;15.10;99.90
10249;DHT22;5169;50.560;9.714;2023-05-10T12:18:56;14.90;99.90
10249;DHT22;5169;50.560;9.714;2023-05-10T12:21:22;15.00;99.90
10249;DHT22;5169;50.560;9.714;2023-05-10T12:23:51;15.00;99.90
10249;DHT22;5169;50.560;9.714;2023-05-10T12:26:16;15.20;99.90
10249;DHT22;5169;50.560;9.714;2023-05-10T12:28:42;15.20;99.90
10249;DHT22;5169;50.560;9.714;2023-05-10T12:31:08;15.30;99.90
10249;DHT22;5169;50.560;9.714;2023-05-10T12:33:38;15.60;99.90
10249;DHT22;5169;50.560;9.714;2023-05-10T12:36:04;15.70;99.90
10249;DHT22;5169;50.560;9.714;2023-05-10T12:41:08;16.10;99.90
10249;DHT22;5169;50.560;9.714;2023-05-10T12:43:36;16.40;99.90
10249;DHT22;5169;50.560;9.714;2023-05-10T12:46:15;16.50;99.90
10249;DHT22;5169;50.560;9.714;2023-05-10T12:48:42;16.60;99.90
10249;DHT22;5169;50.560;9.714;2023-05-10T12:51:08;16.60;99.90
10249;DHT22;5169;50.560;9.714;2023-05-10T12:53:35;16.70;99.90
10249;DHT22;5169;50.560;9.714;2023-05-10T12:56:01;16.80;99.90
10249;DHT22;5169;50.560;9.714;2023-05-10T12:58:26;16.90;99.90
10249;DHT22;5169;50.560;9.714;2023-05-10T13:00:52;17.00;99.90
10249;DHT22;5169;50.560;9.714;2023-05-10T13:03:18;17.10;99.90
10249;DHT22;5169;50.560;9.714;2023-05-10T13:05:46;17.00;99.90
10249;DHT22;5169;50.560;9.714;2023-05-10T13:08:12;17.10;99.90
10249;DHT22;5169;50.560;9.714;2023-05-10T13:10:37;17.10;99.90
10249;DHT22;5169;50.560;9.714;2023-05-10T13:13:06;16.90;99.90
10249;DHT22;5169;50.560;9.714;2023-05-10T13:15:35;16.50;99.90
10249;DHT22;5169;50.560;9.714;2023-05-10T13:18:01;16.30;99.90
10249;DHT22;5169;50.560;9.714;2023-05-10T13:20:26;16.20;99.90
10249;DHT22;5169;50.560;9.714;2023-05-10T13:22:52;16.30;99.90
10249;DHT22;5169;50.560;9.714;2023-05-10T13:25:19;16.50;99.90
10249;DHT22;5169;50.560;9.714;2023-05-10T13:27:45;16.70;99.90
10249;DHT22;5169;50.560;9.714;2023-05-10T13:30:11;16.90;99.90
10249;DHT22;5169;50.560;9.714;2023-05-10T13:32:37;16.70;99.90
10249;DHT22;5169;50.560;9.714;2023-05-10T13:35:03;16.60;99.90
10249;DHT22;5169;50.560;9.714;2023-05-10T13:37:29;16.40;99.90
10249;DHT22;5169;50.560;9.714;2023-05-10T13:39:55;16.10;99.90
10249;DHT22;5169;50.560;9.714;2023-05-10T13:42:22;16.00;99.90
10249;DHT22;5169;50.560;9.714;2023-05-10T13:44:48;15.80;99.90
10249;DHT22;5169;50.560;9.714;2023-05-10T13:47:16;15.80;99.90
10249;DHT22;5169;50.560;9.714;2023-05-10T13:49:41;15.80;99.90
10249;DHT22;5169;50.560;9.714;2023-05-10T13:52:07;15.70;99.90
10249;DHT22;5169;50.560;9.714;2023-05-10T13:54:38;15.80;99.90
10249;DHT22;5169;50.560;9.714;2023-05-10T13:57:04;15.90;99.90
10249;DHT22;5169;50.560;9.714;2023-05-10T13:59:30;16.00;99.90
10249;DHT22;5169;50.560;9.714;2023-05-10T14:01:59;16.20;99.90
10249;DHT22;5169;50.560;9.714;2023-05-10T14:04:25;16.50;99.90
10249;DHT22;5169;50.560;9.714;2023-05-10T14:06:53;16.70;99.90
10249;DHT22;5169;50.560;9.714;2023-05-10T14:09:19;16.60;99.90
10249;DHT22;5169;50.560;9.714;2023-05-10T14:11:47;16.50;99.90
10249;DHT22;5169;50.560;9.714;2023-05-10T14:14:13;16.30;99.90
10249;DHT22;5169;50.560;9.714;2023-05-10T14:16:44;16.30;99.90
10249;DHT22;5169;50.560;9.714;2023-05-10T14:19:12;16.20;99.90
10249;DHT22;5169;50.560;9.714;2023-05-10T14:21:40;16.10;99.90
10249;DHT22;5169;50.560;9.714;2023-05-10T14:24:06;15.90;99.90
10249;DHT22;5169;50.560;9.714;2023-05-10T14:26:32;15.90;99.90
10249;DHT22;5169;50.560;9.714;2023-05-10T14:28:58;15.90;99.90
10249;DHT22;5169;50.560;9.714;2023-05-10T14:31:24;15.60;99.90
10249;DHT22;5169;50.560;9.714;2023-05-10T14:33:50;15.80;99.90
10249;DHT22;5169;50.560;9.714;2023-05-10T14:36:17;16.00;99.90
10249;DHT22;5169;50.560;9.714;2023-05-10T14:38:43;16.10;99.90
10249;DHT22;5169;50.560;9.714;2023-05-10T14:41:08;16.20;99.90
10249;DHT22;5169;50.560;9.714;2023-05-10T14:43:34;16.10;99.90
10249;DHT22;5169;50.560;9.714;2023-05-10T14:46:00;16.00;99.90
10249;DHT22;5169;50.560;9.714;2023-05-10T14:48:26;16.00;99.90
10249;DHT22;5169;50.560;9.714;2023-05-10T14:50:51;16.10;99.90
10249;DHT22;5169;50.560;9.714;2023-05-10T14:53:17;16.10;99.90
10249;DHT22;5169;50.560;9.714;2023-05-10T14:55:43;16.10;99.90
10249;DHT22;5169;50.560;9.714;2023-05-10T14:58:12;16.00;99.90
10249;DHT22;5169;50.560;9.714;2023-05-10T15:00:37;16.00;99.90
10249;DHT22;5169;50.560;9.714;2023-05-10T15:03:03;16.10;99.90
10249;DHT22;5169;50.560;9.714;2023-05-10T15:05:28;16.20;99.90
10249;DHT22;5169;50.560;9.714;2023-05-10T15:07:54;16.20;99.90
10249;DHT22;5169;50.560;9.714;2023-05-10T15:10:20;16.20;99.90
10249;DHT22;5169;50.560;9.714;2023-05-10T15:12:47;16.30;99.90
10249;DHT22;5169;50.560;9.714;2023-05-10T15:15:13;16.30;99.90
10249;DHT22;5169;50.560;9.714;2023-05-10T15:17:39;16.30;99.90
10249;DHT22;5169;50.560;9.714;2023-05-10T15:20:07;16.30;99.90
10249;DHT22;5169;50.560;9.714;2023-05-10T15:22:33;16.20;99.90
10249;DHT22;5169;50.560;9.714;2023-05-10T15:24:58;16.30;99.90
10249;DHT22;5169;50.560;9.714;2023-05-10T15:27:25;16.40;99.90
10249;DHT22;5169;50.560;9.714;2023-05-10T15:29:58;16.40;99.90
10249;DHT22;5169;50.560;9.714;2023-05-10T15:32:27;16.40;99.90
10249;DHT22;5169;50.560;9.714;2023-05-10T15:34:54;16.40;99.90
10249;DHT22;5169;50.560;9.714;2023-05-10T15:37:20;16.30;99.90
10249;DHT22;5169;50.560;9.714;2023-05-10T15:39:49;16.30;99.90
10249;DHT22;5169;50.560;9.714;2023-05-10T15:42:14;16.20;99.90
10249;DHT22;5169;50.560;9.714;2023-05-10T15:44:41;16.00;99.90
10249;DHT22;5169;50.560;9.714;2023-05-10T15:47:06;15.90;99.90
10249;DHT22;5169;50.560;9.714;2023-05-10T15:49:32;15.80;99.90
10249;DHT22;5169;50.560;9.714;2023-05-10T15:51:58;15.70;99.90
10249;DHT22;5169;50.560;9.714;2023-05-10T15:54:26;15.80;99.90
10249;DHT22;5169;50.560;9.714;2023-05-10T15:56:51;16.00;99.90
10249;DHT22;5169;50.560;9.714;2023-05-10T15:59:19;16.00;99.90
10249;DHT22;5169;50.560;9.714;2023-05-10T16:01:44;15.90;99.90
10249;DHT22;5169;50.560;9.714;2023-05-10T16:04:10;15.80;99.90
10249;DHT22;5169;50.560;9.714;2023-05-10T16:06:36;15.80;99.90
10249;DHT22;5169;50.560;9.714;2023-05-10T16:09:02;15.80;99.90
10249;DHT22;5169;50.560;9.714;2023-05-10T16:11:27;15.70;99.90
10249;DHT22;5169;50.560;9.714;2023-05-10T16:13:56;15.60;99.90
10249;DHT22;5169;50.560;9.714;2023-05-10T16:16:21;15.60;99.90
10249;DHT22;5169;50.560;9.714;2023-05-10T16:18:47;15.70;99.90
10249;DHT22;5169;50.560;9.714;2023-05-10T16:21:14;15.70;99.90
10249;DHT22;5169;50.560;9.714;2023-05-10T16:23:40;15.70;99.90
10249;DHT22;5169;50.560;9.714;2023-05-10T16:26:06;15.80;99.90
10249;DHT22;5169;50.560;9.714;2023-05-10T16:28:34;15.70;99.90
10249;DHT22;5169;50.560;9.714;2023-05-10T16:30:59;15.70;99.90
10249;DHT22;5169;50.560;9.714;2023-05-10T16:33:25;15.60;99.90
10249;DHT22;5169;50.560;9.714;2023-05-10T16:35:51;15.60;99.90